createdAt,value
2018-07-19T00:00:31.752Z,3.73
2018-07-19T00:02:59.368Z,3.53
2018-07-19T00:05:26.694Z,3.73
2018-07-19T00:07:53.990Z,4.00
2018-07-19T00:10:21.450Z,3.53
2018-07-19T00:12:48.960Z,3.90
2018-07-19T00:15:16.260Z,4.10
2018-07-19T00:17:43.527Z,3.90
2018-07-19T00:20:12.765Z,4.07
2018-07-19T00:22:40.139Z,3.63
2018-07-19T00:25:07.462Z,3.77
2018-07-19T00:27:34.920Z,3.80
2018-07-19T00:30:02.280Z,4.00
2018-07-19T00:32:29.573Z,3.60
2018-07-19T00:34:56.867Z,3.90
2018-07-19T00:37:24.158Z,3.90
2018-07-19T00:39:51.619Z,3.83
2018-07-19T00:42:18.952Z,3.83
2018-07-19T00:44:46.267Z,4.17
2018-07-19T00:47:13.627Z,4.50
2018-07-19T00:49:40.945Z,3.77
2018-07-19T00:52:08.331Z,4.00
2018-07-19T00:54:35.636Z,3.90
2018-07-19T00:57:02.962Z,3.37
2018-07-19T00:59:30.235Z,3.43
2018-07-19T01:01:57.555Z,3.57
2018-07-19T01:04:24.851Z,3.90
2018-07-19T01:06:52.186Z,3.60
2018-07-19T01:09:19.548Z,4.00
2018-07-19T01:11:46.853Z,3.50
2018-07-19T01:14:14.164Z,4.27
2018-07-19T01:16:41.464Z,4.10
2018-07-19T01:19:08.857Z,4.30
2018-07-19T01:21:36.270Z,3.87
2018-07-19T01:24:03.688Z,3.77
2018-07-19T01:26:30.976Z,4.00
2018-07-19T01:28:58.328Z,4.13
2018-07-19T01:31:25.662Z,3.37
2018-07-19T01:33:52.961Z,3.43
2018-07-19T01:36:20.627Z,3.80
2018-07-19T01:38:47.931Z,3.90
2018-07-19T01:41:20.895Z,3.77
2018-07-19T01:43:48.190Z,4.20
2018-07-19T01:46:15.610Z,4.40
2018-07-19T01:48:43.017Z,3.80
2018-07-19T01:51:10.815Z,4.20
2018-07-19T01:53:38.370Z,3.90
2018-07-19T01:56:05.884Z,3.43
2018-07-19T01:58:33.461Z,4.07
2018-07-19T02:01:00.800Z,3.63
2018-07-19T02:03:28.102Z,3.77
2018-07-19T02:05:55.431Z,3.40
2018-07-19T02:08:22.730Z,3.57
2018-07-19T02:10:50.021Z,4.00
2018-07-19T02:13:17.351Z,3.57
2018-07-19T02:15:44.668Z,3.47
2018-07-19T02:18:11.972Z,3.60
2018-07-19T02:20:39.275Z,4.10
2018-07-19T02:23:06.681Z,3.60
2018-07-19T02:25:33.994Z,4.10
2018-07-19T02:28:01.257Z,4.10
2018-07-19T02:30:28.757Z,3.50
2018-07-19T02:32:56.058Z,3.83
2018-07-19T02:35:23.374Z,3.97
2018-07-19T02:37:50.648Z,4.20
2018-07-19T02:40:18.066Z,4.47
2018-07-19T02:42:45.372Z,3.90
2018-07-19T02:45:12.661Z,4.00
2018-07-19T02:47:39.944Z,4.00
2018-07-19T02:50:07.237Z,3.70
2018-07-19T02:52:34.754Z,3.43
2018-07-19T02:55:02.107Z,3.50
2018-07-19T02:57:29.464Z,3.97
2018-07-19T02:59:56.794Z,3.80
2018-07-19T03:02:24.112Z,4.20
2018-07-19T03:04:51.645Z,3.60
2018-07-19T03:07:19.021Z,3.90
2018-07-19T03:09:47.241Z,4.00
2018-07-19T03:12:14.619Z,3.70
2018-07-19T03:14:41.974Z,3.37
2018-07-19T03:17:09.446Z,4.20
2018-07-19T03:19:36.738Z,3.70
2018-07-19T03:22:04.085Z,3.80
2018-07-19T03:24:31.371Z,4.00
2018-07-19T03:26:58.751Z,4.33
2018-07-19T03:29:26.183Z,3.70
2018-07-19T03:31:53.511Z,3.27
2018-07-19T03:34:20.813Z,3.67
2018-07-19T03:36:48.636Z,4.03
2018-07-19T03:39:16.014Z,3.57
2018-07-19T03:41:43.509Z,3.73
2018-07-19T03:44:10.948Z,3.60
2018-07-19T03:46:38.276Z,4.83
2018-07-19T03:49:05.573Z,4.27
2018-07-19T03:51:32.896Z,3.50
2018-07-19T03:54:00.204Z,3.80
2018-07-19T03:56:27.526Z,3.83
2018-07-19T03:58:54.821Z,4.10
2018-07-19T04:01:22.256Z,3.83
2018-07-19T04:03:49.587Z,3.60
2018-07-19T04:06:16.917Z,3.97
2018-07-19T04:08:44.265Z,5.67
2018-07-19T04:11:11.645Z,3.40
2018-07-19T04:13:38.921Z,4.10
2018-07-19T04:16:06.244Z,3.67
2018-07-19T04:18:33.570Z,4.10
2018-07-19T04:21:00.877Z,3.80
2018-07-19T04:23:28.599Z,3.80
2018-07-19T04:25:56.203Z,3.70
2018-07-19T04:28:23.694Z,3.60
2018-07-19T04:30:51.167Z,3.93
2018-07-19T04:33:18.606Z,4.10
2018-07-19T04:35:46.042Z,3.50
2018-07-19T04:38:13.652Z,4.37
2018-07-19T04:40:41.019Z,3.70
2018-07-19T04:43:08.458Z,3.50
2018-07-19T04:45:35.812Z,3.70
2018-07-19T04:48:03.338Z,3.40
2018-07-19T04:50:30.666Z,3.00
2018-07-19T04:52:57.966Z,3.30
2018-07-19T04:55:25.320Z,4.03
2018-07-19T04:57:52.651Z,3.60
2018-07-19T05:00:20.456Z,2.87
2018-07-19T05:02:48.105Z,3.83
2018-07-19T05:05:15.866Z,3.77
2018-07-19T05:07:43.298Z,3.50
2018-07-19T05:10:10.885Z,3.30
2018-07-19T05:12:38.214Z,4.00
2018-07-19T05:15:05.731Z,4.03
2018-07-19T05:17:33.097Z,3.83
2018-07-19T05:20:00.951Z,3.80
2018-07-19T05:22:28.468Z,4.00
2018-07-19T05:24:55.829Z,3.63
2018-07-19T05:27:23.099Z,3.40
2018-07-19T05:29:50.374Z,4.07
2018-07-19T05:32:17.659Z,3.50
2018-07-19T05:34:45.043Z,3.97
2018-07-19T05:37:12.446Z,3.60
2018-07-19T05:39:39.813Z,3.27
2018-07-19T05:42:07.197Z,3.80
2018-07-19T05:44:34.582Z,3.20
2018-07-19T05:47:01.936Z,3.70
2018-07-19T05:49:29.259Z,3.67
2018-07-19T05:51:56.785Z,4.10
2018-07-19T05:54:24.101Z,4.30
2018-07-19T05:56:51.436Z,4.23
2018-07-19T05:59:18.753Z,3.73
2018-07-19T06:01:46.674Z,3.70
2018-07-19T06:04:14.277Z,4.23
2018-07-19T06:06:41.634Z,3.97
2018-07-19T06:09:10.749Z,3.57
2018-07-19T06:11:38.397Z,3.87
2018-07-19T06:14:05.939Z,3.60
2018-07-19T06:16:33.658Z,3.87
2018-07-19T06:19:01.317Z,3.43
2018-07-19T06:21:28.794Z,3.57
2018-07-19T06:23:56.114Z,4.20
2018-07-19T06:26:23.796Z,3.73
2018-07-19T06:28:51.220Z,4.03
2018-07-19T06:31:19.070Z,3.17
2018-07-19T06:33:46.441Z,3.77
2018-07-19T06:36:13.976Z,3.40
2018-07-19T06:38:41.422Z,3.30
2018-07-19T06:41:08.894Z,3.40
2018-07-19T06:43:36.320Z,3.33
2018-07-19T06:46:03.650Z,3.60
2018-07-19T06:48:30.986Z,3.30
2018-07-19T06:50:58.500Z,3.87
2018-07-19T06:53:25.889Z,3.47
2018-07-19T06:55:53.262Z,3.00
2018-07-19T06:58:20.767Z,3.23
2018-07-19T07:00:48.121Z,3.40
2018-07-19T07:03:15.602Z,3.47
2018-07-19T07:05:42.881Z,3.17
2018-07-19T07:08:10.237Z,3.50
2018-07-19T07:10:37.562Z,3.27
2018-07-19T07:13:05.215Z,2.97
2018-07-19T07:15:32.571Z,3.03
2018-07-19T07:18:00.281Z,4.33
2018-07-19T07:20:27.792Z,3.30
2018-07-19T07:22:55.131Z,2.90
2018-07-19T07:25:22.520Z,3.40
2018-07-19T07:27:50.188Z,2.80
2018-07-19T07:30:17.799Z,3.17
2018-07-19T07:32:45.530Z,2.70
2018-07-19T07:35:12.928Z,2.90
2018-07-19T07:37:40.389Z,3.00
2018-07-19T07:40:07.907Z,2.90
2018-07-19T07:42:35.237Z,2.70
2018-07-19T07:45:02.560Z,2.97
2018-07-19T07:47:30.111Z,2.80
2018-07-19T07:49:57.673Z,2.83
2018-07-19T07:52:25.335Z,2.80
2018-07-19T07:54:52.702Z,2.57
2018-07-19T07:57:20.112Z,3.40
2018-07-19T07:59:47.498Z,2.27
2018-07-19T08:02:14.829Z,2.40
2018-07-19T08:04:42.118Z,3.17
2018-07-19T08:07:09.536Z,2.90
2018-07-19T08:09:37.042Z,2.37
2018-07-19T08:12:04.777Z,2.27
2018-07-19T08:14:32.313Z,2.63
2018-07-19T08:16:59.599Z,2.23
2018-07-19T08:19:27.233Z,2.60
2018-07-19T08:21:54.653Z,2.53
2018-07-19T08:24:21.994Z,2.40
2018-07-19T08:26:49.609Z,2.67
2018-07-19T08:29:17.075Z,2.53
2018-07-19T08:31:44.469Z,3.67
2018-07-19T08:34:11.949Z,4.53
2018-07-19T08:36:39.390Z,3.13
2018-07-19T08:39:08.323Z,2.57
2018-07-19T08:41:35.859Z,2.43
2018-07-19T08:44:03.281Z,3.30
2018-07-19T08:46:30.818Z,2.53
2018-07-19T08:48:58.494Z,2.80
2018-07-19T08:51:26.171Z,2.50
2018-07-19T08:53:53.469Z,2.67
2018-07-19T08:56:20.824Z,2.43
2018-07-19T08:58:48.173Z,3.03
2018-07-19T09:01:15.496Z,2.50
2018-07-19T09:03:42.787Z,2.80
2018-07-19T09:06:10.185Z,2.40
2018-07-19T09:08:37.830Z,2.73
2018-07-19T09:11:05.085Z,2.33
2018-07-19T09:13:32.444Z,2.47
2018-07-19T09:16:00.018Z,2.27
2018-07-19T09:18:27.419Z,2.80
2018-07-19T09:20:54.766Z,2.40
2018-07-19T09:23:22.057Z,2.43
2018-07-19T09:25:49.388Z,2.90
2018-07-19T09:28:16.837Z,2.47
2018-07-19T09:30:44.220Z,2.80
2018-07-19T09:33:11.563Z,3.13
2018-07-19T09:35:38.873Z,3.00
2018-07-19T09:38:06.648Z,2.57
2018-07-19T09:40:33.967Z,2.80
2018-07-19T09:43:01.265Z,2.70
2018-07-19T09:45:28.634Z,2.70
2018-07-19T09:47:56.152Z,3.30
2018-07-19T09:50:23.623Z,2.90
2018-07-19T09:52:51.141Z,2.80
2018-07-19T09:55:18.756Z,3.40
2018-07-19T10:00:33.133Z,4.17
2018-07-19T10:03:01.472Z,3.60
2018-07-19T10:05:29.786Z,3.13
2018-07-19T10:07:58.441Z,3.30
2018-07-19T10:10:26.857Z,3.63
2018-07-19T10:12:55.552Z,3.90
2018-07-19T10:15:24.160Z,4.60
2018-07-19T10:17:52.453Z,3.50
2018-07-19T10:20:20.816Z,2.60
2018-07-19T10:22:49.124Z,3.20
2018-07-19T10:25:18.200Z,3.23
2018-07-19T10:27:46.526Z,3.70
2018-07-19T10:30:15.195Z,3.17
2018-07-19T10:32:43.596Z,3.17
2018-07-19T10:35:11.878Z,3.30
2018-07-19T10:37:40.960Z,3.07
2018-07-19T10:40:09.563Z,3.40
2018-07-19T10:42:38.061Z,4.03
2018-07-19T10:45:06.395Z,4.10
2018-07-19T10:47:34.911Z,3.20
2018-07-19T10:50:03.527Z,2.83
2018-07-19T10:52:31.861Z,3.00
2018-07-19T10:55:00.239Z,3.60
2018-07-19T10:57:28.888Z,4.30
2018-07-19T10:59:57.489Z,3.73
2018-07-19T11:02:25.806Z,3.20
2018-07-19T11:04:54.181Z,3.20
2018-07-19T11:07:23.056Z,3.80
2018-07-19T11:09:51.632Z,3.50
2018-07-19T11:12:20.127Z,3.33
2018-07-19T11:14:48.579Z,3.70
2018-07-19T11:17:16.922Z,2.80
2018-07-19T11:19:45.360Z,3.03
2018-07-19T11:22:13.652Z,3.20
2018-07-19T11:24:42.046Z,3.17
2018-07-19T11:27:10.327Z,3.07
2018-07-19T11:29:39.015Z,3.10
2018-07-19T11:32:07.547Z,2.80
2018-07-19T11:34:35.951Z,3.60
2018-07-19T11:37:04.338Z,2.80
2018-07-19T11:39:32.954Z,3.33
2018-07-19T11:42:01.904Z,3.20
2018-07-19T11:44:30.496Z,2.97
2018-07-19T11:46:58.794Z,3.37
2018-07-19T11:49:27.661Z,2.87
2018-07-19T11:51:55.907Z,3.10
2018-07-19T11:54:24.232Z,3.00
2018-07-19T11:56:52.834Z,3.40
2018-07-19T11:59:21.829Z,3.30
2018-07-19T12:01:50.375Z,2.73
2018-07-19T12:04:19.115Z,3.20
2018-07-19T12:06:47.586Z,2.50
2018-07-19T12:09:15.910Z,3.30
2018-07-19T12:11:44.232Z,3.40
2018-07-19T12:14:12.700Z,3.43
2018-07-19T12:16:41.448Z,2.80
2018-07-19T12:19:09.755Z,3.03
2018-07-19T12:21:38.156Z,2.80
2018-07-19T12:24:06.539Z,3.63
2018-07-19T12:26:35.071Z,3.37
2018-07-19T12:29:03.399Z,3.03
2018-07-19T12:31:31.723Z,2.87
2018-07-19T12:34:00.123Z,3.30
2018-07-19T12:36:28.738Z,3.10
2018-07-19T12:38:57.207Z,2.80
2018-07-19T12:41:25.577Z,3.20
2018-07-19T12:43:54.034Z,3.00
2018-07-19T12:46:22.612Z,2.60
2018-07-19T12:48:51.336Z,3.30
2018-07-19T12:51:19.605Z,3.03
2018-07-19T12:53:48.082Z,3.07
2018-07-19T12:56:16.818Z,3.10
2018-07-19T12:58:45.688Z,3.10
2018-07-19T13:01:14.128Z,2.80
2018-07-19T13:03:42.562Z,2.50
2018-07-19T13:06:10.864Z,3.53
2018-07-19T13:08:39.336Z,2.80
2018-07-19T13:11:07.747Z,3.10
2018-07-19T13:13:37.068Z,2.60
2018-07-19T13:16:06.030Z,3.03
2018-07-19T13:18:34.878Z,3.13
2018-07-19T13:21:03.220Z,2.90
2018-07-19T13:23:31.927Z,3.13
2018-07-19T13:26:00.303Z,2.67
2018-07-19T13:28:28.831Z,3.40
2018-07-19T13:30:57.691Z,3.07
2018-07-19T13:33:26.344Z,3.13
2018-07-19T13:35:54.977Z,3.50
2018-07-19T13:38:23.464Z,3.00
2018-07-19T13:40:52.220Z,3.00
2018-07-19T13:43:20.522Z,2.80
2018-07-19T13:45:48.876Z,3.13
2018-07-19T13:48:17.176Z,3.10
2018-07-19T13:51:16.276Z,2.50
2018-07-19T13:53:55.765Z,3.03
2018-07-19T13:56:24.160Z,2.87
2018-07-19T13:58:52.543Z,2.47
2018-07-19T14:01:20.958Z,2.80
2018-07-19T14:03:49.300Z,2.70
2018-07-19T14:06:17.653Z,2.83
2018-07-19T14:08:46.180Z,2.90
2018-07-19T14:11:14.530Z,2.97
2018-07-19T14:13:42.829Z,2.93
2018-07-19T14:16:11.248Z,3.03
2018-07-19T14:18:39.544Z,3.00
2018-07-19T14:21:07.817Z,2.87
2018-07-19T14:23:36.912Z,3.20
2018-07-19T14:26:05.361Z,2.80
2018-07-19T14:28:33.698Z,2.90
2018-07-19T14:31:02.028Z,2.63
2018-07-19T14:33:30.491Z,2.87
2018-07-19T14:35:58.930Z,2.67
2018-07-19T14:38:27.259Z,2.73
2018-07-19T14:40:55.609Z,2.80
2018-07-19T14:43:24.014Z,2.93
2018-07-19T14:45:52.346Z,3.30
2018-07-19T14:48:20.620Z,3.20
2018-07-19T14:50:49.131Z,2.87
2018-07-19T14:53:17.735Z,2.57
2018-07-19T14:55:46.341Z,2.53
2018-07-19T14:58:14.948Z,2.90
2018-07-19T15:00:43.386Z,2.80
2018-07-19T15:03:12.028Z,2.47
2018-07-19T15:05:40.671Z,2.70
2018-07-19T15:08:09.169Z,2.83
2018-07-19T15:10:37.454Z,3.07
2018-07-19T15:13:06.008Z,2.90
2018-07-19T15:15:34.343Z,3.27
2018-07-19T15:18:02.726Z,2.93
2018-07-19T15:20:31.827Z,2.90
2018-07-19T15:23:00.303Z,3.10
2018-07-19T15:25:28.819Z,2.60
2018-07-19T15:27:57.294Z,2.90
2018-07-19T15:30:25.909Z,2.93
2018-07-19T15:32:54.338Z,2.60
2018-07-19T15:35:22.875Z,3.20
2018-07-19T15:37:51.172Z,2.73
2018-07-19T15:40:19.840Z,3.37
2018-07-19T15:42:48.172Z,3.10
2018-07-19T15:45:16.633Z,2.97
2018-07-19T15:47:44.924Z,3.20
2018-07-19T15:50:13.370Z,3.10
2018-07-19T15:52:41.742Z,2.93
2018-07-19T15:55:10.472Z,3.10
2018-07-19T15:57:38.832Z,3.10
2018-07-19T16:00:07.269Z,2.60
2018-07-19T16:02:35.862Z,2.87
2018-07-19T16:05:04.511Z,2.90
2018-07-19T16:07:32.807Z,2.80
2018-07-19T16:10:01.318Z,2.50
2018-07-19T16:12:29.846Z,2.87
2018-07-19T16:14:58.127Z,3.40
2018-07-19T16:17:26.752Z,3.50
2018-07-19T16:19:55.424Z,3.13
2018-07-19T16:22:24.467Z,3.20
2018-07-19T16:24:52.948Z,2.90
2018-07-19T16:27:21.577Z,3.20
2018-07-19T16:29:49.958Z,3.47
2018-07-19T16:32:18.551Z,2.93
2018-07-19T16:34:47.239Z,3.20
2018-07-19T16:37:15.697Z,2.93
2018-07-19T16:39:44.837Z,2.77
2018-07-19T16:42:13.160Z,2.90
2018-07-19T16:44:41.457Z,3.00
2018-07-19T16:47:10.129Z,3.50
2018-07-19T16:49:38.844Z,3.40
2018-07-19T16:52:07.186Z,3.40
2018-07-19T16:54:35.519Z,3.50
2018-07-19T16:57:03.840Z,3.27
2018-07-19T16:59:32.380Z,3.10
2018-07-19T17:02:00.931Z,3.30
2018-07-19T17:04:29.319Z,2.63
2018-07-19T17:06:57.769Z,3.57
2018-07-19T17:09:29.492Z,3.50
2018-07-19T17:11:58.007Z,2.90
2018-07-19T17:14:26.902Z,3.40
2018-07-19T17:16:55.756Z,3.00
2018-07-19T17:19:24.341Z,3.37
2018-07-19T17:28:51.466Z,3.30
2018-07-19T17:31:20.575Z,3.20
2018-07-19T17:33:49.108Z,3.47
2018-07-19T17:36:17.752Z,3.10
2018-07-19T17:38:46.587Z,3.37
2018-07-19T17:41:15.387Z,3.00
2018-07-19T17:43:44.097Z,3.70
2018-07-19T17:46:12.608Z,3.33
2018-07-19T17:48:41.005Z,3.50
2018-07-19T17:51:09.547Z,3.50
2018-07-19T17:53:37.871Z,3.67
2018-07-19T17:56:06.264Z,3.53
2018-07-19T17:58:34.739Z,3.60
2018-07-19T18:01:05.511Z,3.13
2018-07-19T18:03:36.111Z,2.90
2018-07-19T18:06:04.629Z,2.90
2018-07-19T18:08:33.531Z,3.30
2018-07-19T18:11:02.504Z,3.03
2018-07-19T18:13:31.575Z,3.03
2018-07-19T18:16:00.333Z,4.90
2018-07-19T18:18:28.747Z,3.47
2018-07-19T18:20:57.091Z,3.63
2018-07-19T18:23:25.903Z,2.83
2018-07-19T18:25:56.501Z,3.10
2018-07-19T18:28:25.229Z,2.90
2018-07-19T18:30:54.315Z,3.33
2018-07-19T18:33:22.794Z,3.57
2018-07-19T18:35:51.446Z,3.43
2018-07-19T18:38:19.829Z,3.50
2018-07-19T18:40:48.548Z,3.10
2018-07-19T18:43:16.993Z,3.50
2018-07-19T18:45:45.885Z,3.13
2018-07-19T18:48:14.260Z,3.63
2018-07-19T18:50:42.989Z,3.40
2018-07-19T18:53:11.506Z,3.90
2018-07-19T18:55:39.891Z,3.93
2018-07-19T18:58:08.610Z,3.20
2018-07-19T19:00:37.199Z,3.40
2018-07-19T19:03:06.240Z,3.30
2018-07-19T19:05:35.275Z,4.07
2018-07-19T19:08:04.063Z,3.90
2018-07-19T19:10:32.892Z,3.80
2018-07-19T19:13:01.228Z,4.07
2018-07-19T19:15:30.001Z,3.90
2018-07-19T19:17:58.729Z,3.90
2018-07-19T19:20:27.329Z,3.53
2018-07-19T19:22:56.139Z,3.30
2018-07-19T19:25:24.580Z,3.70
2018-07-19T19:27:53.204Z,4.40
2018-07-19T19:30:21.584Z,4.67
2018-07-19T19:32:50.349Z,3.60
2018-07-19T19:35:19.493Z,3.90
2018-07-19T19:37:47.969Z,4.00
2018-07-19T19:40:16.335Z,3.83
2018-07-19T19:42:45.036Z,4.13
2018-07-19T19:45:13.373Z,3.70
2018-07-19T19:47:41.884Z,4.57
2018-07-19T19:50:10.450Z,3.80
2018-07-19T19:52:38.863Z,3.90
2018-07-19T19:55:07.289Z,3.90
2018-07-19T19:57:35.969Z,3.90
2018-07-19T20:00:05.620Z,3.50
2018-07-19T20:02:34.191Z,3.90
2018-07-19T20:05:02.826Z,3.73
2018-07-19T20:07:31.278Z,3.50
2018-07-19T20:09:59.720Z,3.67
2018-07-19T20:12:28.320Z,3.50
2018-07-19T20:14:57.886Z,3.30
2018-07-19T20:17:30.181Z,3.10
2018-07-19T20:19:58.576Z,3.50
2018-07-19T20:22:26.900Z,3.40
2018-07-19T20:24:55.251Z,3.77
2018-07-19T20:27:23.630Z,3.00
2018-07-19T20:29:52.138Z,3.20
2018-07-19T20:32:20.691Z,3.50
2018-07-19T20:34:49.331Z,3.03
2018-07-19T20:37:17.833Z,3.40
2018-07-19T20:39:46.540Z,3.73
2018-07-19T20:42:16.668Z,3.80
2018-07-19T20:44:46.017Z,3.50
2018-07-19T20:47:14.632Z,4.10
2018-07-19T20:49:43.167Z,4.47
2018-07-19T20:52:11.989Z,3.90
2018-07-19T20:54:41.189Z,3.87
2018-07-19T20:57:09.636Z,4.00
2018-07-19T20:59:38.304Z,4.20
2018-07-19T21:02:07.042Z,4.50
2018-07-19T21:04:36.322Z,4.63
2018-07-19T21:07:05.016Z,5.00
2018-07-19T21:09:33.965Z,4.57
2018-07-19T21:12:03.537Z,5.40
2018-07-19T21:14:32.021Z,4.90
2018-07-19T21:17:00.768Z,6.20
2018-07-19T21:19:29.356Z,4.20
2018-07-19T21:21:58.051Z,4.40
2018-07-19T21:24:26.493Z,4.43
2018-07-19T21:26:55.248Z,5.13
2018-07-19T21:29:24.023Z,5.30
2018-07-19T21:31:52.823Z,4.33
2018-07-19T21:34:21.484Z,5.00
2018-07-19T21:36:50.357Z,5.37
2018-07-19T21:39:18.987Z,5.20
2018-07-19T21:41:47.454Z,5.20
2018-07-19T21:44:16.261Z,4.33
2018-07-19T21:46:44.909Z,5.00
2018-07-19T21:49:13.889Z,5.73
2018-07-19T21:51:42.324Z,4.77
2018-07-19T21:54:11.006Z,4.10
2018-07-19T21:56:39.313Z,4.93
2018-07-19T21:59:07.769Z,4.40
2018-07-19T22:01:40.362Z,4.23
2018-07-19T22:04:08.808Z,4.60
2018-07-19T22:06:37.450Z,4.40
2018-07-19T22:09:08.399Z,4.60
2018-07-19T22:11:37.392Z,4.20
2018-07-19T22:14:06.781Z,4.47
2018-07-19T22:16:35.983Z,4.47
2018-07-19T22:19:04.649Z,4.00
2018-07-19T22:21:33.508Z,5.50
2018-07-19T22:24:02.600Z,5.10
2018-07-19T22:26:31.295Z,4.67
2018-07-19T22:28:59.979Z,5.00
2018-07-19T22:31:28.529Z,3.90
2018-07-19T22:33:56.999Z,4.23
2018-07-19T22:36:25.705Z,4.77
2018-07-19T22:38:54.262Z,4.33
2018-07-19T22:41:22.830Z,4.90
2018-07-19T22:43:51.712Z,4.63
2018-07-19T22:46:20.212Z,4.87
2018-07-19T22:48:49.024Z,5.10
2018-07-19T22:51:17.799Z,4.40
2018-07-19T22:53:46.791Z,4.50
2018-07-19T22:56:15.380Z,4.73
2018-07-19T22:58:44.106Z,4.67
2018-07-19T23:01:12.515Z,4.70
2018-07-19T23:03:41.045Z,4.70
2018-07-19T23:06:09.361Z,4.10
2018-07-19T23:08:37.825Z,3.93
2018-07-19T23:11:06.203Z,4.43
2018-07-19T23:13:34.553Z,5.43
2018-07-19T23:16:03.400Z,4.20
2018-07-19T23:18:32.053Z,4.03
2018-07-19T23:21:00.771Z,4.17
2018-07-19T23:23:29.094Z,4.90
2018-07-19T23:25:57.535Z,4.13
2018-07-19T23:28:26.045Z,4.50
2018-07-19T23:30:54.528Z,3.97
2018-07-19T23:33:23.153Z,4.47
2018-07-19T23:35:55.696Z,4.27
2018-07-19T23:38:28.052Z,4.10
2018-07-19T23:40:57.935Z,3.93
2018-07-19T23:43:29.655Z,4.00
2018-07-19T23:46:01.887Z,4.13
2018-07-19T23:48:30.533Z,3.63
2018-07-19T23:50:58.831Z,3.60
2018-07-19T23:53:27.117Z,3.57
2018-07-19T23:55:55.628Z,3.80
2018-07-19T23:58:23.955Z,4.40
